createdAt,value
2022-12-19T00:02:55.228Z,73.03
2022-12-19T00:07:59.050Z,77.37
2022-12-19T00:13:07.998Z,73.10
2022-12-19T00:18:13.094Z,80.47
2022-12-19T00:23:16.860Z,76.47
2022-12-19T00:28:20.626Z,78.75
2022-12-19T00:33:26.441Z,77.82
2022-12-19T00:38:30.635Z,70.65
2022-12-19T00:43:34.327Z,67.28
2022-12-19T00:48:41.826Z,74.35
2022-12-19T00:53:47.384Z,65.68
2022-12-19T00:58:53.263Z,63.17
2022-12-19T01:04:27.177Z,67.40
2022-12-19T01:09:23.785Z,63.40
2022-12-19T01:14:27.456Z,76.35
2022-12-19T01:19:32.488Z,72.70
2022-12-19T01:24:36.214Z,67.57
2022-12-19T01:29:51.783Z,76.25
2022-12-19T01:34:58.057Z,74.25
2022-12-19T01:40:01.762Z,72.00
2022-12-19T01:45:22.563Z,72.90
2022-12-19T01:50:33.225Z,60.97
2022-12-19T01:55:38.308Z,76.43
2022-12-19T02:00:44.271Z,74.50
2022-12-19T02:05:50.431Z,66.07
2022-12-19T02:10:55.273Z,65.50
2022-12-19T02:16:07.430Z,67.90
2022-12-19T02:21:30.009Z,65.32
2022-12-19T02:27:07.054Z,68.20
2022-12-19T02:32:20.698Z,67.53
2022-12-19T02:37:29.064Z,76.15
2022-12-19T02:42:37.333Z,70.85
2022-12-19T02:47:43.406Z,69.70
2022-12-19T02:52:49.428Z,70.65
2022-12-19T02:58:38.975Z,67.55
2022-12-19T03:03:51.944Z,63.70
2022-12-19T03:09:02.429Z,76.12
2022-12-19T03:14:09.128Z,63.25
2022-12-19T03:19:15.709Z,51.10
2022-12-19T03:24:20.756Z,56.40
2022-12-19T03:29:30.420Z,45.92
2022-12-19T03:34:41.546Z,49.53
2022-12-19T03:39:50.905Z,51.00
2022-12-19T03:44:56.695Z,42.88
2022-12-19T03:50:02.436Z,43.05
2022-12-19T03:55:12.329Z,48.38
2022-12-19T04:00:18.796Z,49.42
2022-12-19T04:05:26.588Z,48.67
2022-12-19T04:10:31.311Z,40.53
2022-12-19T04:15:43.346Z,34.22
2022-12-19T04:20:56.147Z,41.03
2022-12-19T04:26:03.691Z,45.65
2022-12-19T04:31:08.925Z,29.33
2022-12-19T04:36:14.095Z,37.10
2022-12-19T04:41:17.741Z,37.42
2022-12-19T04:46:21.448Z,33.88
2022-12-19T04:51:26.550Z,39.25
2022-12-19T04:56:30.201Z,37.08
2022-12-19T05:01:34.002Z,38.70
2022-12-19T05:06:39.101Z,32.65
2022-12-19T05:11:42.879Z,33.78
2022-12-19T05:16:46.835Z,37.15
2022-12-19T05:21:51.859Z,38.00
2022-12-19T05:26:55.566Z,28.92
2022-12-19T05:31:59.324Z,36.47
2022-12-19T05:37:04.633Z,38.83
2022-12-19T05:42:12.115Z,35.92
2022-12-19T05:47:16.256Z,31.33
2022-12-19T05:52:21.455Z,32.45
2022-12-19T05:57:25.213Z,27.33
2022-12-19T06:02:33.788Z,29.70
2022-12-19T06:07:38.938Z,31.98
2022-12-19T06:12:42.717Z,29.40
2022-12-19T06:17:46.621Z,28.15
2022-12-19T06:22:51.676Z,25.25
2022-12-19T06:27:55.410Z,23.95
2022-12-19T06:32:59.141Z,30.50
2022-12-19T06:38:04.246Z,24.02
2022-12-19T06:43:07.946Z,24.83
2022-12-19T06:48:11.619Z,23.60
2022-12-19T06:53:16.718Z,25.05
2022-12-19T06:58:24.356Z,23.70
2022-12-19T07:03:32.746Z,22.55
2022-12-19T07:08:37.797Z,27.42
2022-12-19T07:13:41.485Z,25.80
2022-12-19T07:18:45.180Z,22.25
2022-12-19T07:23:50.361Z,21.98
2022-12-19T07:28:54.623Z,19.92
2022-12-19T07:33:58.956Z,17.70
2022-12-19T07:39:04.795Z,16.17
2022-12-19T07:44:09.258Z,21.73
2022-12-19T07:49:14.247Z,18.80
2022-12-19T07:54:22.069Z,22.45
2022-12-19T07:59:30.354Z,18.70
2022-12-19T08:04:36.587Z,21.10
2022-12-19T08:09:41.674Z,19.92
2022-12-19T08:14:45.401Z,20.67
2022-12-19T08:19:49.144Z,19.10
2022-12-19T08:24:54.245Z,22.08
2022-12-19T08:29:57.907Z,20.75
2022-12-19T08:35:01.669Z,19.42
2022-12-19T08:40:08.258Z,19.58
2022-12-19T08:45:12.112Z,16.52
2022-12-19T08:50:15.867Z,21.80
2022-12-19T08:55:21.705Z,18.42
2022-12-19T09:00:25.629Z,15.57
2022-12-19T09:06:05.439Z,23.67
2022-12-19T09:11:00.715Z,19.30
2022-12-19T09:16:06.456Z,19.52
2022-12-19T09:21:10.483Z,15.75
2022-12-19T09:26:15.492Z,23.77
2022-12-19T09:31:21.383Z,16.60
2022-12-19T09:36:26.974Z,18.15
2022-12-19T09:41:45.744Z,14.38
2022-12-19T09:46:52.298Z,17.40
2022-12-19T09:52:02.159Z,13.35
2022-12-19T09:57:15.498Z,14.43
2022-12-19T10:02:28.243Z,16.25
2022-12-19T10:07:57.823Z,14.43
2022-12-19T10:13:14.698Z,10.27
2022-12-19T10:18:36.218Z,13.55
2022-12-19T10:23:58.776Z,15.73
2022-12-19T10:29:20.669Z,13.65
2022-12-19T10:34:29.472Z,10.25
2022-12-19T10:39:38.162Z,12.90
2022-12-19T10:44:45.088Z,13.52
2022-12-19T10:49:49.383Z,12.40
2022-12-19T10:54:53.167Z,16.75
2022-12-19T11:00:00.611Z,12.73
2022-12-19T11:05:05.658Z,14.07
2022-12-19T11:11:38.605Z,12.82
2022-12-19T11:23:04.598Z,12.90
2022-12-19T11:29:14.881Z,12.60
2022-12-19T11:30:48.671Z,10.90
2022-12-19T11:32:47.076Z,12.85
2022-12-19T11:37:56.010Z,10.82
2022-12-19T11:43:42.664Z,9.23
2022-12-19T11:48:39.770Z,11.23
2022-12-19T11:53:52.108Z,13.25
2022-12-19T11:58:59.128Z,12.27
2022-12-19T12:04:46.244Z,13.15
2022-12-19T12:15:57.708Z,11.48
2022-12-19T12:28:03.522Z,8.60
2022-12-19T12:31:17.476Z,7.40
2022-12-19T12:31:41.879Z,9.38
2022-12-19T12:35:40.501Z,8.57
2022-12-19T12:43:23.424Z,5.70
2022-12-19T12:48:31.250Z,9.23
2022-12-19T12:53:39.483Z,10.48
2022-12-19T12:58:44.825Z,7.70
2022-12-19T13:03:59.861Z,8.45
2022-12-19T13:09:21.207Z,4.78
2022-12-19T13:14:49.926Z,7.00
2022-12-19T13:19:56.521Z,6.47
2022-12-19T13:25:02.270Z,10.98
2022-12-19T13:30:17.327Z,6.30
2022-12-19T13:39:24.151Z,5.57
2022-12-19T13:41:02.058Z,6.78
2022-12-19T13:46:19.371Z,8.13
2022-12-19T13:51:23.543Z,8.27
2022-12-19T13:56:31.884Z,6.57
2022-12-19T14:06:42.557Z,4.20
2022-12-19T14:12:28.197Z,6.10
2022-12-19T14:17:15.066Z,5.68
2022-12-19T14:22:25.801Z,6.78
2022-12-19T14:28:23.522Z,3.62
2022-12-19T14:33:46.160Z,3.83
2022-12-19T14:39:25.839Z,4.90
2022-12-19T14:53:17.516Z,5.10
2022-12-19T14:54:16.319Z,8.05
2022-12-19T14:56:08.775Z,4.05
2022-12-19T15:01:09.549Z,5.25
2022-12-19T15:07:05.297Z,4.37
2022-12-19T15:13:30.451Z,5.47
2022-12-19T15:17:28.448Z,6.03
2022-12-19T15:22:32.151Z,5.40
2022-12-19T15:27:36.088Z,4.50
2022-12-19T15:32:41.445Z,7.30
2022-12-19T15:37:45.737Z,5.10
2022-12-19T15:42:54.948Z,6.43
2022-12-19T15:48:00.288Z,5.45
2022-12-19T15:53:24.412Z,4.75
2022-12-19T15:58:35.711Z,7.20
2022-12-19T16:03:41.098Z,6.37
2022-12-19T16:08:45.069Z,4.90
2022-12-19T16:13:52.809Z,9.05
2022-12-19T16:18:58.523Z,5.30
2022-12-19T16:24:02.275Z,6.45
2022-12-19T16:29:06.621Z,4.65
2022-12-19T16:34:15.888Z,5.12
2022-12-19T16:39:19.815Z,3.42
2022-12-19T16:44:25.565Z,5.45
2022-12-19T16:49:32.097Z,5.90
2022-12-19T16:54:35.877Z,3.22
2022-12-19T16:59:41.318Z,6.12
2022-12-19T17:04:50.505Z,6.25
2022-12-19T17:09:57.556Z,9.15
2022-12-19T17:15:01.382Z,7.93
2022-12-19T17:20:10.778Z,9.75
2022-12-19T17:25:18.831Z,7.78
2022-12-19T17:30:23.429Z,4.57
2022-12-19T17:35:32.756Z,6.37
2022-12-19T17:40:36.773Z,5.70
2022-12-19T17:45:41.451Z,6.00
2022-12-19T17:50:46.692Z,4.47
2022-12-19T17:55:50.688Z,6.70
2022-12-19T18:00:54.671Z,5.35
2022-12-19T18:05:59.887Z,7.47
2022-12-19T18:11:07.573Z,6.40
2022-12-19T18:16:14.284Z,9.73
2022-12-19T18:21:22.368Z,7.70
2022-12-19T18:26:26.079Z,5.35
2022-12-19T18:31:30.390Z,6.35
2022-12-19T18:36:40.858Z,5.90
2022-12-19T18:41:44.594Z,5.37
2022-12-19T18:46:50.430Z,6.70
2022-12-19T18:51:55.550Z,6.53
2022-12-19T18:56:59.670Z,10.18
2022-12-19T19:02:04.894Z,7.18
2022-12-19T19:07:12.054Z,9.07
2022-12-19T19:12:15.753Z,9.50
2022-12-19T19:17:26.124Z,9.60
2022-12-19T19:22:31.171Z,10.48
2022-12-19T19:27:35.104Z,7.50
2022-12-19T19:32:45.227Z,8.93
2022-12-19T19:37:52.325Z,9.25
2022-12-19T19:42:56.246Z,7.70
2022-12-19T19:48:03.987Z,5.78
2022-12-19T19:53:09.233Z,6.80
2022-12-19T19:58:13.027Z,8.63
2022-12-19T20:03:22.464Z,7.32
2022-12-19T20:08:33.663Z,8.38
2022-12-19T20:13:42.565Z,5.30
2022-12-19T20:18:49.868Z,6.97
2022-12-19T20:23:54.961Z,8.48
2022-12-19T20:28:58.848Z,13.77
2022-12-19T20:34:02.595Z,7.65
2022-12-19T20:39:07.937Z,5.78
2022-12-19T20:44:11.818Z,11.57
2022-12-19T20:49:15.535Z,9.65
2022-12-19T20:54:21.043Z,7.20
2022-12-19T20:59:24.710Z,15.35
2022-12-19T21:04:28.807Z,6.03
2022-12-19T21:09:34.250Z,7.93
2022-12-19T21:14:37.954Z,6.32
2022-12-19T21:19:41.827Z,6.22
2022-12-19T21:24:47.064Z,7.72
2022-12-19T21:29:50.801Z,9.27
2022-12-19T21:34:54.669Z,8.52
2022-12-19T21:39:59.723Z,7.15
2022-12-19T21:45:03.392Z,8.60
2022-12-19T21:50:09.171Z,7.30
2022-12-19T21:55:14.229Z,5.62
2022-12-19T22:00:18.505Z,6.30
2022-12-19T22:05:22.217Z,7.95
2022-12-19T22:10:27.259Z,7.32
2022-12-19T22:15:31.224Z,7.37
2022-12-19T22:20:34.991Z,6.55
2022-12-19T22:25:40.097Z,9.20
2022-12-19T22:30:43.843Z,5.03
2022-12-19T22:35:47.582Z,3.92
2022-12-19T22:40:52.958Z,6.37
2022-12-19T22:45:56.747Z,5.00
2022-12-19T22:51:00.576Z,5.12
2022-12-19T22:56:08.168Z,4.45
2022-12-19T23:01:16.776Z,5.07
2022-12-19T23:06:21.389Z,4.75
2022-12-19T23:11:28.878Z,4.57
2022-12-19T23:16:32.789Z,5.70
2022-12-19T23:21:37.598Z,4.40
2022-12-19T23:26:43.052Z,9.48
2022-12-19T23:31:48.269Z,7.85
2022-12-19T23:42:17.050Z,7.03
2022-12-19T23:47:20.982Z,6.35
2022-12-19T23:52:24.721Z,5.65
2022-12-19T23:57:29.914Z,6.55
